sensor_id;sensor_type;location;lat;lon;timestamp;temperature;humidity
46217;DHT22;47258;59.424;13.482;2022-11-21T00:01:12;-0.20;99.90
46217;DHT22;47258;59.424;13.482;2022-11-21T00:03:40;-0.20;99.90
46217;DHT22;47258;59.424;13.482;2022-11-21T00:06:07;-0.20;99.90
46217;DHT22;47258;59.424;13.482;2022-11-21T00:08:34;-0.20;99.90
46217;DHT22;47258;59.424;13.482;2022-11-21T00:11:01;-0.20;99.90
46217;DHT22;47258;59.424;13.482;2022-11-21T00:13:28;-0.20;99.90
46217;DHT22;47258;59.424;13.482;2022-11-21T00:15:55;-0.20;99.90
46217;DHT22;47258;59.424;13.482;2022-11-21T00:18:22;-0.20;99.90
46217;DHT22;47258;59.424;13.482;2022-11-21T00:20:50;-0.20;99.90
46217;DHT22;47258;59.424;13.482;2022-11-21T00:23:17;-0.20;99.90
46217;DHT22;47258;59.424;13.482;2022-11-21T00:25:43;-0.20;99.90
46217;DHT22;47258;59.424;13.482;2022-11-21T00:28:10;-0.20;99.90
46217;DHT22;47258;59.424;13.482;2022-11-21T00:30:37;-0.10;99.90
46217;DHT22;47258;59.424;13.482;2022-11-21T00:33:04;-0.10;99.90
46217;DHT22;47258;59.424;13.482;2022-11-21T00:35:31;-0.10;99.90
46217;DHT22;47258;59.424;13.482;2022-11-21T00:37:59;-0.10;99.90
46217;DHT22;47258;59.424;13.482;2022-11-21T00:40:26;-0.10;99.90
46217;DHT22;47258;59.424;13.482;2022-11-21T00:42:53;-0.10;99.90
46217;DHT22;47258;59.424;13.482;2022-11-21T00:45:20;-0.10;99.90
46217;DHT22;47258;59.424;13.482;2022-11-21T00:47:47;-0.10;99.90
46217;DHT22;47258;59.424;13.482;2022-11-21T00:50:14;-0.10;99.90
46217;DHT22;47258;59.424;13.482;2022-11-21T00:52:41;-0.10;99.90
46217;DHT22;47258;59.424;13.482;2022-11-21T00:55:09;-0.10;99.90
46217;DHT22;47258;59.424;13.482;2022-11-21T00:57:36;-0.10;99.90
46217;DHT22;47258;59.424;13.482;2022-11-21T01:00:04;-0.10;99.90
46217;DHT22;47258;59.424;13.482;2022-11-21T01:02:31;0.00;99.90
46217;DHT22;47258;59.424;13.482;2022-11-21T01:04:58;0.00;99.90
46217;DHT22;47258;59.424;13.482;2022-11-21T01:07:25;-0.10;99.90
46217;DHT22;47258;59.424;13.482;2022-11-21T01:09:52;-0.10;99.90
46217;DHT22;47258;59.424;13.482;2022-11-21T01:12:20;0.00;99.90
46217;DHT22;47258;59.424;13.482;2022-11-21T01:14:47;0.00;99.90
46217;DHT22;47258;59.424;13.482;2022-11-21T01:17:14;0.00;99.90
46217;DHT22;47258;59.424;13.482;2022-11-21T01:19:41;0.00;99.90
46217;DHT22;47258;59.424;13.482;2022-11-21T01:22:08;0.00;99.90
46217;DHT22;47258;59.424;13.482;2022-11-21T01:24:35;0.00;99.90
46217;DHT22;47258;59.424;13.482;2022-11-21T01:27:02;0.00;99.90
46217;DHT22;47258;59.424;13.482;2022-11-21T01:29:30;0.10;99.90
46217;DHT22;47258;59.424;13.482;2022-11-21T01:31:57;0.10;99.90
46217;DHT22;47258;59.424;13.482;2022-11-21T01:34:24;0.10;99.90
46217;DHT22;47258;59.424;13.482;2022-11-21T01:36:51;0.10;99.90
46217;DHT22;47258;59.424;13.482;2022-11-21T01:39:18;0.00;99.90
46217;DHT22;47258;59.424;13.482;2022-11-21T01:41:45;0.10;99.90
46217;DHT22;47258;59.424;13.482;2022-11-21T01:44:17;0.00;99.90
46217;DHT22;47258;59.424;13.482;2022-11-21T01:46:45;0.00;99.90
46217;DHT22;47258;59.424;13.482;2022-11-21T01:49:15;0.00;99.90
46217;DHT22;47258;59.424;13.482;2022-11-21T01:51:46;0.00;99.90
46217;DHT22;47258;59.424;13.482;2022-11-21T01:54:17;0.10;99.90
46217;DHT22;47258;59.424;13.482;2022-11-21T01:56:48;0.10;99.90
46217;DHT22;47258;59.424;13.482;2022-11-21T01:59:20;0.10;99.90
46217;DHT22;47258;59.424;13.482;2022-11-21T02:01:53;0.10;99.90
46217;DHT22;47258;59.424;13.482;2022-11-21T02:04:25;0.10;99.90
46217;DHT22;47258;59.424;13.482;2022-11-21T02:06:54;0.10;99.90
46217;DHT22;47258;59.424;13.482;2022-11-21T02:09:22;0.10;99.90
46217;DHT22;47258;59.424;13.482;2022-11-21T02:11:53;0.10;99.90
46217;DHT22;47258;59.424;13.482;2022-11-21T02:14:21;0.10;99.90
46217;DHT22;47258;59.424;13.482;2022-11-21T02:16:48;0.10;99.90
46217;DHT22;47258;59.424;13.482;2022-11-21T02:19:22;0.10;99.90
46217;DHT22;47258;59.424;13.482;2022-11-21T02:21:57;0.20;99.90
46217;DHT22;47258;59.424;13.482;2022-11-21T02:24:31;0.20;99.90
46217;DHT22;47258;59.424;13.482;2022-11-21T02:27:02;0.20;99.90
46217;DHT22;47258;59.424;13.482;2022-11-21T02:29:30;0.20;99.90
46217;DHT22;47258;59.424;13.482;2022-11-21T02:31:58;0.10;99.90
46217;DHT22;47258;59.424;13.482;2022-11-21T02:34:25;0.20;99.90
46217;DHT22;47258;59.424;13.482;2022-11-21T02:36:52;0.20;99.90
46217;DHT22;47258;59.424;13.482;2022-11-21T02:39:22;0.20;99.90
46217;DHT22;47258;59.424;13.482;2022-11-21T02:41:56;0.20;99.90
46217;DHT22;47258;59.424;13.482;2022-11-21T02:44:30;0.20;99.90
46217;DHT22;47258;59.424;13.482;2022-11-21T02:46:59;0.20;99.90
46217;DHT22;47258;59.424;13.482;2022-11-21T02:49:37;0.20;99.90
46217;DHT22;47258;59.424;13.482;2022-11-21T02:52:05;0.20;99.90
46217;DHT22;47258;59.424;13.482;2022-11-21T02:54:32;0.10;99.90
46217;DHT22;47258;59.424;13.482;2022-11-21T02:56:59;0.20;99.90
46217;DHT22;47258;59.424;13.482;2022-11-21T02:59:27;0.20;99.90
46217;DHT22;47258;59.424;13.482;2022-11-21T03:01:54;0.20;99.90
46217;DHT22;47258;59.424;13.482;2022-11-21T03:04:24;0.20;99.90
46217;DHT22;47258;59.424;13.482;2022-11-21T03:06:51;0.20;99.90
46217;DHT22;47258;59.424;13.482;2022-11-21T03:09:18;0.20;99.90
46217;DHT22;47258;59.424;13.482;2022-11-21T03:11:45;0.20;99.90
46217;DHT22;47258;59.424;13.482;2022-11-21T03:14:11;0.20;99.90
46217;DHT22;47258;59.424;13.482;2022-11-21T03:16:40;0.30;99.90
46217;DHT22;47258;59.424;13.482;2022-11-21T03:19:07;0.30;99.90
46217;DHT22;47258;59.424;13.482;2022-11-21T03:21:34;0.30;99.90
46217;DHT22;47258;59.424;13.482;2022-11-21T03:24:01;0.30;99.90
46217;DHT22;47258;59.424;13.482;2022-11-21T03:26:27;0.40;99.90
46217;DHT22;47258;59.424;13.482;2022-11-21T03:28:54;0.40;99.90
46217;DHT22;47258;59.424;13.482;2022-11-21T03:31:21;0.40;99.90
46217;DHT22;47258;59.424;13.482;2022-11-21T03:33:49;0.30;99.90
46217;DHT22;47258;59.424;13.482;2022-11-21T03:36:16;0.30;99.90
46217;DHT22;47258;59.424;13.482;2022-11-21T03:38:43;0.30;99.90
46217;DHT22;47258;59.424;13.482;2022-11-21T03:41:10;0.30;99.90
46217;DHT22;47258;59.424;13.482;2022-11-21T03:43:51;0.40;99.90
46217;DHT22;47258;59.424;13.482;2022-11-21T03:46:18;0.40;99.90
46217;DHT22;47258;59.424;13.482;2022-11-21T03:48:45;0.40;99.90
46217;DHT22;47258;59.424;13.482;2022-11-21T03:51:13;0.40;99.90
46217;DHT22;47258;59.424;13.482;2022-11-21T03:53:40;0.40;99.90
46217;DHT22;47258;59.424;13.482;2022-11-21T03:56:07;0.40;99.90
46217;DHT22;47258;59.424;13.482;2022-11-21T03:58:34;0.40;99.90
46217;DHT22;47258;59.424;13.482;2022-11-21T04:01:01;0.40;99.90
46217;DHT22;47258;59.424;13.482;2022-11-21T04:03:28;0.40;99.90
46217;DHT22;47258;59.424;13.482;2022-11-21T04:05:55;0.40;99.90
46217;DHT22;47258;59.424;13.482;2022-11-21T04:08:23;0.40;99.90
46217;DHT22;47258;59.424;13.482;2022-11-21T04:10:51;0.40;99.90
46217;DHT22;47258;59.424;13.482;2022-11-21T04:13:19;0.40;99.90
46217;DHT22;47258;59.424;13.482;2022-11-21T04:15:46;0.40;99.90
46217;DHT22;47258;59.424;13.482;2022-11-21T04:18:13;0.40;99.90
46217;DHT22;47258;59.424;13.482;2022-11-21T04:20:40;0.40;99.90
46217;DHT22;47258;59.424;13.482;2022-11-21T04:23:13;0.40;99.90
46217;DHT22;47258;59.424;13.482;2022-11-21T04:25:41;0.40;99.90
46217;DHT22;47258;59.424;13.482;2022-11-21T04:28:11;0.40;99.90
46217;DHT22;47258;59.424;13.482;2022-11-21T04:30:39;0.40;99.90
46217;DHT22;47258;59.424;13.482;2022-11-21T04:33:06;0.40;99.90
46217;DHT22;47258;59.424;13.482;2022-11-21T04:35:33;0.40;99.90
46217;DHT22;47258;59.424;13.482;2022-11-21T04:38:00;0.40;99.90
46217;DHT22;47258;59.424;13.482;2022-11-21T04:40:26;0.40;99.90
46217;DHT22;47258;59.424;13.482;2022-11-21T04:42:55;0.40;99.90
46217;DHT22;47258;59.424;13.482;2022-11-21T04:45:22;0.40;99.90
46217;DHT22;47258;59.424;13.482;2022-11-21T04:47:49;0.40;99.90
46217;DHT22;47258;59.424;13.482;2022-11-21T04:50:16;0.40;99.90
46217;DHT22;47258;59.424;13.482;2022-11-21T04:52:48;0.40;99.90
46217;DHT22;47258;59.424;13.482;2022-11-21T04:55:15;0.40;99.90
46217;DHT22;47258;59.424;13.482;2022-11-21T04:57:42;0.40;99.90
46217;DHT22;47258;59.424;13.482;2022-11-21T05:00:12;0.40;99.90
46217;DHT22;47258;59.424;13.482;2022-11-21T05:02:39;0.40;99.90
46217;DHT22;47258;59.424;13.482;2022-11-21T05:05:06;0.40;99.90
46217;DHT22;47258;59.424;13.482;2022-11-21T05:07:34;0.40;99.90
46217;DHT22;47258;59.424;13.482;2022-11-21T05:10:01;0.40;99.90
46217;DHT22;47258;59.424;13.482;2022-11-21T05:12:27;0.40;99.90
46217;DHT22;47258;59.424;13.482;2022-11-21T05:15:13;0.40;99.90
46217;DHT22;47258;59.424;13.482;2022-11-21T05:17:40;0.40;99.90
46217;DHT22;47258;59.424;13.482;2022-11-21T05:20:08;0.40;99.90
46217;DHT22;47258;59.424;13.482;2022-11-21T05:22:35;0.40;99.90
46217;DHT22;47258;59.424;13.482;2022-11-21T05:25:03;0.40;99.90
46217;DHT22;47258;59.424;13.482;2022-11-21T05:27:30;0.50;99.90
46217;DHT22;47258;59.424;13.482;2022-11-21T05:29:57;0.50;99.90
46217;DHT22;47258;59.424;13.482;2022-11-21T05:32:25;0.50;99.90
46217;DHT22;47258;59.424;13.482;2022-11-21T05:34:52;0.50;99.90
46217;DHT22;47258;59.424;13.482;2022-11-21T05:37:19;0.40;99.90
46217;DHT22;47258;59.424;13.482;2022-11-21T05:39:46;0.50;99.90
46217;DHT22;47258;59.424;13.482;2022-11-21T05:42:13;0.40;99.90
46217;DHT22;47258;59.424;13.482;2022-11-21T05:44:40;0.50;99.90
46217;DHT22;47258;59.424;13.482;2022-11-21T05:47:06;0.40;99.90
46217;DHT22;47258;59.424;13.482;2022-11-21T05:49:34;0.40;99.90
46217;DHT22;47258;59.424;13.482;2022-11-21T05:52:01;0.40;99.90
46217;DHT22;47258;59.424;13.482;2022-11-21T05:54:28;0.40;99.90
46217;DHT22;47258;59.424;13.482;2022-11-21T05:56:55;0.40;99.90
46217;DHT22;47258;59.424;13.482;2022-11-21T05:59:21;0.40;99.90
46217;DHT22;47258;59.424;13.482;2022-11-21T06:01:48;0.40;99.90
46217;DHT22;47258;59.424;13.482;2022-11-21T06:04:35;0.40;99.90
46217;DHT22;47258;59.424;13.482;2022-11-21T06:07:02;0.40;99.90
46217;DHT22;47258;59.424;13.482;2022-11-21T06:09:30;0.40;99.90
46217;DHT22;47258;59.424;13.482;2022-11-21T06:11:57;0.40;99.90
46217;DHT22;47258;59.424;13.482;2022-11-21T06:14:24;0.40;99.90
46217;DHT22;47258;59.424;13.482;2022-11-21T06:16:50;0.40;99.90
46217;DHT22;47258;59.424;13.482;2022-11-21T06:19:17;0.40;99.90
46217;DHT22;47258;59.424;13.482;2022-11-21T06:21:46;0.30;99.90
46217;DHT22;47258;59.424;13.482;2022-11-21T06:24:12;0.30;99.90
46217;DHT22;47258;59.424;13.482;2022-11-21T06:26:39;0.30;99.90
46217;DHT22;47258;59.424;13.482;2022-11-21T06:29:09;0.30;99.90
46217;DHT22;47258;59.424;13.482;2022-11-21T06:31:36;0.30;99.90
46217;DHT22;47258;59.424;13.482;2022-11-21T06:34:03;0.20;99.90
46217;DHT22;47258;59.424;13.482;2022-11-21T06:36:30;0.20;99.90
46217;DHT22;47258;59.424;13.482;2022-11-21T06:38:58;0.20;99.90
46217;DHT22;47258;59.424;13.482;2022-11-21T06:41:26;0.20;99.90
46217;DHT22;47258;59.424;13.482;2022-11-21T06:43:57;0.20;99.90
46217;DHT22;47258;59.424;13.482;2022-11-21T06:46:24;0.20;99.90
46217;DHT22;47258;59.424;13.482;2022-11-21T06:48:52;0.20;99.90
46217;DHT22;47258;59.424;13.482;2022-11-21T06:51:20;0.20;99.90
46217;DHT22;47258;59.424;13.482;2022-11-21T06:53:51;0.20;99.90
46217;DHT22;47258;59.424;13.482;2022-11-21T06:56:21;0.20;99.90
46217;DHT22;47258;59.424;13.482;2022-11-21T06:58:48;0.20;99.90
46217;DHT22;47258;59.424;13.482;2022-11-21T07:01:15;0.20;99.90
46217;DHT22;47258;59.424;13.482;2022-11-21T07:03:42;0.20;99.90
46217;DHT22;47258;59.424;13.482;2022-11-21T07:06:09;0.20;99.90
46217;DHT22;47258;59.424;13.482;2022-11-21T07:08:36;0.20;99.90
46217;DHT22;47258;59.424;13.482;2022-11-21T07:11:07;0.20;99.90
46217;DHT22;47258;59.424;13.482;2022-11-21T07:13:35;0.10;99.90
46217;DHT22;47258;59.424;13.482;2022-11-21T07:16:03;0.10;99.90
46217;DHT22;47258;59.424;13.482;2022-11-21T07:18:30;0.10;99.90
46217;DHT22;47258;59.424;13.482;2022-11-21T07:20:58;0.10;99.90
46217;DHT22;47258;59.424;13.482;2022-11-21T07:23:25;0.10;99.90
46217;DHT22;47258;59.424;13.482;2022-11-21T07:25:52;0.10;99.90
46217;DHT22;47258;59.424;13.482;2022-11-21T07:28:19;0.10;99.90
46217;DHT22;47258;59.424;13.482;2022-11-21T07:30:47;0.20;99.90
46217;DHT22;47258;59.424;13.482;2022-11-21T07:33:14;0.10;99.90
46217;DHT22;47258;59.424;13.482;2022-11-21T07:35:41;0.20;99.90
46217;DHT22;47258;59.424;13.482;2022-11-21T07:38:09;0.20;99.90
46217;DHT22;47258;59.424;13.482;2022-11-21T07:40:36;0.20;99.90
46217;DHT22;47258;59.424;13.482;2022-11-21T07:43:04;0.20;99.90
46217;DHT22;47258;59.424;13.482;2022-11-21T07:45:32;0.20;99.90
46217;DHT22;47258;59.424;13.482;2022-11-21T07:48:02;0.20;99.90
46217;DHT22;47258;59.424;13.482;2022-11-21T07:50:29;0.20;99.90
46217;DHT22;47258;59.424;13.482;2022-11-21T07:52:57;0.20;99.90
46217;DHT22;47258;59.424;13.482;2022-11-21T07:55:24;0.20;99.90
46217;DHT22;47258;59.424;13.482;2022-11-21T07:57:57;0.20;99.90
46217;DHT22;47258;59.424;13.482;2022-11-21T08:00:25;0.30;99.90
46217;DHT22;47258;59.424;13.482;2022-11-21T08:02:52;0.30;99.90
46217;DHT22;47258;59.424;13.482;2022-11-21T08:05:20;0.30;99.90
46217;DHT22;47258;59.424;13.482;2022-11-21T08:07:48;0.30;99.90
46217;DHT22;47258;59.424;13.482;2022-11-21T08:10:15;0.30;99.90
46217;DHT22;47258;59.424;13.482;2022-11-21T08:12:42;0.20;99.90
46217;DHT22;47258;59.424;13.482;2022-11-21T08:15:11;0.30;99.90
46217;DHT22;47258;59.424;13.482;2022-11-21T08:17:38;0.30;99.90
46217;DHT22;47258;59.424;13.482;2022-11-21T08:20:06;0.30;99.90
46217;DHT22;47258;59.424;13.482;2022-11-21T08:22:38;0.30;99.90
46217;DHT22;47258;59.424;13.482;2022-11-21T08:25:06;0.30;99.90
46217;DHT22;47258;59.424;13.482;2022-11-21T08:27:34;0.30;99.90
46217;DHT22;47258;59.424;13.482;2022-11-21T08:30:00;0.30;99.90
46217;DHT22;47258;59.424;13.482;2022-11-21T08:32:27;0.30;99.90
46217;DHT22;47258;59.424;13.482;2022-11-21T08:34:54;0.30;99.90
46217;DHT22;47258;59.424;13.482;2022-11-21T08:37:21;0.30;99.90
46217;DHT22;47258;59.424;13.482;2022-11-21T08:39:49;0.30;99.90
46217;DHT22;47258;59.424;13.482;2022-11-21T08:42:16;0.30;99.90
46217;DHT22;47258;59.424;13.482;2022-11-21T08:44:43;0.30;99.90
46217;DHT22;47258;59.424;13.482;2022-11-21T08:47:10;0.30;99.90
46217;DHT22;47258;59.424;13.482;2022-11-21T08:49:37;0.30;99.90
46217;DHT22;47258;59.424;13.482;2022-11-21T08:52:04;0.30;99.90
46217;DHT22;47258;59.424;13.482;2022-11-21T08:54:31;0.20;99.90
46217;DHT22;47258;59.424;13.482;2022-11-21T08:56:59;0.30;99.90
46217;DHT22;47258;59.424;13.482;2022-11-21T08:59:26;0.20;99.90
46217;DHT22;47258;59.424;13.482;2022-11-21T09:01:53;0.20;99.90
46217;DHT22;47258;59.424;13.482;2022-11-21T09:04:20;0.30;99.90
46217;DHT22;47258;59.424;13.482;2022-11-21T09:06:47;0.20;99.90
46217;DHT22;47258;59.424;13.482;2022-11-21T09:09:13;0.20;99.90
46217;DHT22;47258;59.424;13.482;2022-11-21T09:11:40;0.20;99.90
46217;DHT22;47258;59.424;13.482;2022-11-21T09:14:09;0.20;99.90
46217;DHT22;47258;59.424;13.482;2022-11-21T09:16:52;0.30;99.90
46217;DHT22;47258;59.424;13.482;2022-11-21T09:19:37;0.30;99.90
46217;DHT22;47258;59.424;13.482;2022-11-21T09:22:04;0.30;99.90
46217;DHT22;47258;59.424;13.482;2022-11-21T09:24:30;0.40;99.90
46217;DHT22;47258;59.424;13.482;2022-11-21T09:26:58;0.40;99.90
46217;DHT22;47258;59.424;13.482;2022-11-21T09:29:26;0.40;99.90
46217;DHT22;47258;59.424;13.482;2022-11-21T09:31:53;0.40;99.90
46217;DHT22;47258;59.424;13.482;2022-11-21T09:34:20;0.40;99.90
46217;DHT22;47258;59.424;13.482;2022-11-21T09:36:47;0.40;99.90
46217;DHT22;47258;59.424;13.482;2022-11-21T09:39:14;0.30;99.90
46217;DHT22;47258;59.424;13.482;2022-11-21T09:41:46;0.30;99.90
46217;DHT22;47258;59.424;13.482;2022-11-21T09:44:31;0.30;99.90
46217;DHT22;47258;59.424;13.482;2022-11-21T09:47:10;0.40;99.90
46217;DHT22;47258;59.424;13.482;2022-11-21T09:49:44;0.40;99.90
46217;DHT22;47258;59.424;13.482;2022-11-21T09:52:14;0.30;99.90
46217;DHT22;47258;59.424;13.482;2022-11-21T09:54:47;0.30;99.90
46217;DHT22;47258;59.424;13.482;2022-11-21T09:57:18;0.30;99.90
46217;DHT22;47258;59.424;13.482;2022-11-21T09:59:49;0.30;99.90
46217;DHT22;47258;59.424;13.482;2022-11-21T10:02:19;0.20;99.90
46217;DHT22;47258;59.424;13.482;2022-11-21T10:04:48;0.30;99.90
46217;DHT22;47258;59.424;13.482;2022-11-21T10:07:20;0.20;99.90
46217;DHT22;47258;59.424;13.482;2022-11-21T10:10:09;0.20;99.90
46217;DHT22;47258;59.424;13.482;2022-11-21T10:12:49;0.20;99.90
46217;DHT22;47258;59.424;13.482;2022-11-21T10:15:30;0.20;99.90
46217;DHT22;47258;59.424;13.482;2022-11-21T10:18:23;0.20;99.90
46217;DHT22;47258;59.424;13.482;2022-11-21T10:20:57;0.10;99.90
46217;DHT22;47258;59.424;13.482;2022-11-21T10:23:52;0.10;99.90
46217;DHT22;47258;59.424;13.482;2022-11-21T10:26:23;0.10;99.90
46217;DHT22;47258;59.424;13.482;2022-11-21T10:28:59;0.10;99.90
46217;DHT22;47258;59.424;13.482;2022-11-21T10:31:35;0.10;99.90
46217;DHT22;47258;59.424;13.482;2022-11-21T10:34:04;0.10;99.90
46217;DHT22;47258;59.424;13.482;2022-11-21T10:36:36;0.10;99.90
46217;DHT22;47258;59.424;13.482;2022-11-21T10:39:11;0.10;99.90
46217;DHT22;47258;59.424;13.482;2022-11-21T10:41:45;0.20;99.90
46217;DHT22;47258;59.424;13.482;2022-11-21T10:44:21;0.20;99.90
46217;DHT22;47258;59.424;13.482;2022-11-21T10:47:14;0.30;99.90
46217;DHT22;47258;59.424;13.482;2022-11-21T10:49:56;0.30;99.90
46217;DHT22;47258;59.424;13.482;2022-11-21T10:52:26;0.30;99.90
46217;DHT22;47258;59.424;13.482;2022-11-21T10:55:10;0.30;99.90
46217;DHT22;47258;59.424;13.482;2022-11-21T10:57:43;0.30;99.90
46217;DHT22;47258;59.424;13.482;2022-11-21T11:00:20;0.20;99.90
46217;DHT22;47258;59.424;13.482;2022-11-21T11:03:14;0.30;99.90
46217;DHT22;47258;59.424;13.482;2022-11-21T11:05:53;0.30;99.90
46217;DHT22;47258;59.424;13.482;2022-11-21T11:08:20;0.30;99.90
46217;DHT22;47258;59.424;13.482;2022-11-21T11:11:01;0.40;99.90
46217;DHT22;47258;59.424;13.482;2022-11-21T11:13:28;0.50;99.90
46217;DHT22;47258;59.424;13.482;2022-11-21T11:16:09;0.60;99.90
46217;DHT22;47258;59.424;13.482;2022-11-21T11:18:47;0.60;99.90
46217;DHT22;47258;59.424;13.482;2022-11-21T11:21:17;0.70;99.90
46217;DHT22;47258;59.424;13.482;2022-11-21T11:23:46;0.80;99.90
46217;DHT22;47258;59.424;13.482;2022-11-21T11:26:22;0.80;99.90
46217;DHT22;47258;59.424;13.482;2022-11-21T11:28:49;0.90;99.90
46217;DHT22;47258;59.424;13.482;2022-11-21T11:31:16;0.80;99.90
46217;DHT22;47258;59.424;13.482;2022-11-21T11:33:52;0.80;99.90
46217;DHT22;47258;59.424;13.482;2022-11-21T11:36:30;0.80;99.90
46217;DHT22;47258;59.424;13.482;2022-11-21T11:39:00;0.80;99.90
46217;DHT22;47258;59.424;13.482;2022-11-21T11:42:06;0.70;99.90
46217;DHT22;47258;59.424;13.482;2022-11-21T11:45:15;0.70;99.90
46217;DHT22;47258;59.424;13.482;2022-11-21T11:48:02;0.70;99.90
46217;DHT22;47258;59.424;13.482;2022-11-21T11:50:33;0.70;99.90
46217;DHT22;47258;59.424;13.482;2022-11-21T11:53:06;0.70;99.90
46217;DHT22;47258;59.424;13.482;2022-11-21T11:55:40;0.70;99.90
46217;DHT22;47258;59.424;13.482;2022-11-21T11:58:17;0.70;99.90
46217;DHT22;47258;59.424;13.482;2022-11-21T12:00:47;0.70;99.90
46217;DHT22;47258;59.424;13.482;2022-11-21T12:03:18;0.70;99.90
46217;DHT22;47258;59.424;13.482;2022-11-21T12:05:57;0.70;99.90
46217;DHT22;47258;59.424;13.482;2022-11-21T12:08:29;0.70;99.90
46217;DHT22;47258;59.424;13.482;2022-11-21T12:11:05;0.70;99.90
46217;DHT22;47258;59.424;13.482;2022-11-21T12:13:54;0.60;99.90
46217;DHT22;47258;59.424;13.482;2022-11-21T12:16:24;0.60;99.90
46217;DHT22;47258;59.424;13.482;2022-11-21T12:18:55;0.60;99.90
46217;DHT22;47258;59.424;13.482;2022-11-21T12:21:25;0.60;99.90
46217;DHT22;47258;59.424;13.482;2022-11-21T12:23:54;0.70;99.90
46217;DHT22;47258;59.424;13.482;2022-11-21T12:26:36;0.60;99.90
46217;DHT22;47258;59.424;13.482;2022-11-21T12:29:14;0.60;99.90
46217;DHT22;47258;59.424;13.482;2022-11-21T12:32:08;0.60;99.90
46217;DHT22;47258;59.424;13.482;2022-11-21T12:37:38;0.60;99.90
46217;DHT22;47258;59.424;13.482;2022-11-21T12:40:22;0.50;99.90
46217;DHT22;47258;59.424;13.482;2022-11-21T12:43:01;0.50;99.90
46217;DHT22;47258;59.424;13.482;2022-11-21T12:45:31;0.50;99.90
46217;DHT22;47258;59.424;13.482;2022-11-21T12:48:19;0.50;99.90
46217;DHT22;47258;59.424;13.482;2022-11-21T12:51:28;0.50;99.90
46217;DHT22;47258;59.424;13.482;2022-11-21T12:57:19;0.50;99.90
46217;DHT22;47258;59.424;13.482;2022-11-21T12:59:52;0.40;99.90
46217;DHT22;47258;59.424;13.482;2022-11-21T13:02:29;0.50;99.90
46217;DHT22;47258;59.424;13.482;2022-11-21T13:04:58;0.50;99.90
46217;DHT22;47258;59.424;13.482;2022-11-21T13:07:27;0.50;99.90
46217;DHT22;47258;59.424;13.482;2022-11-21T13:09:58;0.50;99.90
46217;DHT22;47258;59.424;13.482;2022-11-21T13:12:32;0.50;99.90
46217;DHT22;47258;59.424;13.482;2022-11-21T13:15:09;0.50;99.90
46217;DHT22;47258;59.424;13.482;2022-11-21T13:17:44;0.60;99.90
46217;DHT22;47258;59.424;13.482;2022-11-21T13:20:20;0.60;99.90
46217;DHT22;47258;59.424;13.482;2022-11-21T13:22:53;0.60;99.90
46217;DHT22;47258;59.424;13.482;2022-11-21T13:25:41;0.60;99.90
46217;DHT22;47258;59.424;13.482;2022-11-21T13:28:37;0.60;99.90
46217;DHT22;47258;59.424;13.482;2022-11-21T13:31:28;0.60;99.90
46217;DHT22;47258;59.424;13.482;2022-11-21T13:33:56;0.60;99.90
46217;DHT22;47258;59.424;13.482;2022-11-21T13:36:37;0.60;99.90
46217;DHT22;47258;59.424;13.482;2022-11-21T13:39:34;0.60;99.90
46217;DHT22;47258;59.424;13.482;2022-11-21T13:42:15;0.50;99.90
46217;DHT22;47258;59.424;13.482;2022-11-21T13:57:09;0.50;99.90
46217;DHT22;47258;59.424;13.482;2022-11-21T13:59:53;0.50;99.90
46217;DHT22;47258;59.424;13.482;2022-11-21T14:08:18;0.40;99.90
46217;DHT22;47258;59.424;13.482;2022-11-21T14:10:46;0.40;99.90
46217;DHT22;47258;59.424;13.482;2022-11-21T14:13:20;0.40;99.90
46217;DHT22;47258;59.424;13.482;2022-11-21T14:16:04;0.40;99.90
46217;DHT22;47258;59.424;13.482;2022-11-21T14:18:35;0.40;99.90
46217;DHT22;47258;59.424;13.482;2022-11-21T14:21:04;0.40;99.90
46217;DHT22;47258;59.424;13.482;2022-11-21T14:23:34;0.40;99.90
46217;DHT22;47258;59.424;13.482;2022-11-21T14:26:03;0.40;99.90
46217;DHT22;47258;59.424;13.482;2022-11-21T14:28:32;0.30;99.90
46217;DHT22;47258;59.424;13.482;2022-11-21T14:31:02;0.30;99.90
46217;DHT22;47258;59.424;13.482;2022-11-21T14:33:32;0.30;99.90
46217;DHT22;47258;59.424;13.482;2022-11-21T14:36:02;0.30;99.90
46217;DHT22;47258;59.424;13.482;2022-11-21T14:38:33;0.30;99.90
46217;DHT22;47258;59.424;13.482;2022-11-21T14:41:28;0.30;99.90
46217;DHT22;47258;59.424;13.482;2022-11-21T14:44:14;0.30;99.90
46217;DHT22;47258;59.424;13.482;2022-11-21T14:46:43;0.30;99.90
46217;DHT22;47258;59.424;13.482;2022-11-21T14:49:34;0.20;99.90
46217;DHT22;47258;59.424;13.482;2022-11-21T14:52:07;0.20;99.90
46217;DHT22;47258;59.424;13.482;2022-11-21T14:54:45;0.10;99.90
46217;DHT22;47258;59.424;13.482;2022-11-21T14:57:19;0.10;99.90
46217;DHT22;47258;59.424;13.482;2022-11-21T14:59:48;0.10;99.90
46217;DHT22;47258;59.424;13.482;2022-11-21T15:02:18;0.10;99.90
46217;DHT22;47258;59.424;13.482;2022-11-21T15:04:46;0.10;99.90
46217;DHT22;47258;59.424;13.482;2022-11-21T15:07:18;0.10;99.90
46217;DHT22;47258;59.424;13.482;2022-11-21T15:09:45;0.10;99.90
46217;DHT22;47258;59.424;13.482;2022-11-21T15:12:18;0.10;99.90
46217;DHT22;47258;59.424;13.482;2022-11-21T15:14:48;0.10;99.90
46217;DHT22;47258;59.424;13.482;2022-11-21T15:17:20;0.10;99.90
46217;DHT22;47258;59.424;13.482;2022-11-21T15:20:03;0.10;99.90
46217;DHT22;47258;59.424;13.482;2022-11-21T15:22:34;0.10;99.90
46217;DHT22;47258;59.424;13.482;2022-11-21T15:25:07;0.10;99.90
46217;DHT22;47258;59.424;13.482;2022-11-21T15:27:35;0.00;99.90
46217;DHT22;47258;59.424;13.482;2022-11-21T15:30:26;0.00;99.90
46217;DHT22;47258;59.424;13.482;2022-11-21T15:33:09;0.00;99.90
46217;DHT22;47258;59.424;13.482;2022-11-21T15:35:45;0.00;99.90
46217;DHT22;47258;59.424;13.482;2022-11-21T15:38:18;0.00;99.90
46217;DHT22;47258;59.424;13.482;2022-11-21T15:41:08;0.00;99.90
46217;DHT22;47258;59.424;13.482;2022-11-21T15:43:49;0.00;99.90
46217;DHT22;47258;59.424;13.482;2022-11-21T15:46:17;0.00;99.90
46217;DHT22;47258;59.424;13.482;2022-11-21T15:48:47;0.00;99.90
46217;DHT22;47258;59.424;13.482;2022-11-21T15:51:15;0.00;99.90
46217;DHT22;47258;59.424;13.482;2022-11-21T15:53:42;0.00;99.90
46217;DHT22;47258;59.424;13.482;2022-11-21T15:56:11;0.00;99.90
46217;DHT22;47258;59.424;13.482;2022-11-21T15:58:38;0.00;99.90
46217;DHT22;47258;59.424;13.482;2022-11-21T16:01:09;0.00;99.90
46217;DHT22;47258;59.424;13.482;2022-11-21T16:03:37;0.00;99.90
46217;DHT22;47258;59.424;13.482;2022-11-21T16:06:05;-0.10;99.90
46217;DHT22;47258;59.424;13.482;2022-11-21T16:08:32;-0.10;99.90
46217;DHT22;47258;59.424;13.482;2022-11-21T16:10:59;-0.10;99.90
46217;DHT22;47258;59.424;13.482;2022-11-21T16:13:26;-0.10;99.90
46217;DHT22;47258;59.424;13.482;2022-11-21T16:15:53;-0.10;99.90
46217;DHT22;47258;59.424;13.482;2022-11-21T16:18:20;-0.10;99.90